Time;durP1;ratioP1;P1;durP2;ratioP2;P2;SDS_P1;SDS_P2;PMS_P1;PMS_P2;Temp;Humidity;BMP_temperature;BMP_pressure;BME280_temperature;BME280_humidity;BME280_pressure;Samples;Min_cycle;Max_cycle;Signal;HPM_P1;HPM_P2
2021/04/25 00:00:16;;;;;;;19.85;10.85;;;23.10;34.80;;;;;;6218644;28;82741;-65
2021/04/25 00:03:16;;;;;;;21.95;10.98;;;23.10;34.50;;;;;;6214570;28;82888;-64
2021/04/25 00:06:17;;;;;;;26.17;10.88;;;23.10;34.60;;;;;;6225636;28;83328;-64
2021/04/25 00:09:19;;;;;;;19.80;11.23;;;23.10;34.60;;;;;;6223873;28;82801;-65
2021/04/25 00:12:20;;;;;;;18.00;10.07;;;23.10;34.70;;;;;;6227409;28;84230;-65
2021/04/25 00:15:21;;;;;;;19.83;11.40;;;23.00;34.60;;;;;;6223384;28;84373;-65
2021/04/25 00:18:21;;;;;;;27.15;12.02;;;23.00;34.60;;;;;;6219520;28;84405;-65
2021/04/25 00:21:22;;;;;;;19.70;11.30;;;23.10;34.70;;;;;;6225848;28;84148;-65
2021/04/25 00:24:22;;;;;;;19.90;10.45;;;23.00;34.60;;;;;;6223841;28;83945;-65
2021/04/25 00:27:23;;;;;;;21.83;10.60;;;23.00;34.70;;;;;;6228045;28;87326;-63
2021/04/25 00:30:23;;;;;;;23.65;10.95;;;23.00;34.30;;;;;;6226330;28;83129;-64
2021/04/25 00:33:24;;;;;;;19.77;11.07;;;23.00;34.40;;;;;;6228298;28;83529;-63
2021/04/25 00:36:24;;;;;;;25.10;9.93;;;23.00;34.50;;;;;;6229210;28;83044;-63
2021/04/25 00:39:25;;;;;;;19.63;10.02;;;23.00;34.80;;;;;;6230527;28;82943;-63
2021/04/25 00:42:25;;;;;;;17.60;10.38;;;23.10;35.10;;;;;;6228771;28;82920;-63
2021/04/25 00:45:26;;;;;;;22.15;10.77;;;23.00;34.80;;;;;;6227057;28;83008;-63
2021/04/25 00:48:27;;;;;;;19.75;10.52;;;23.00;34.70;;;;;;6205485;28;84491;-63
2021/04/25 00:51:27;;;;;;;21.40;11.70;;;23.00;35.00;;;;;;6212382;28;83819;-63
2021/04/25 00:54:28;;;;;;;22.23;11.25;;;23.00;34.80;;;;;;6222320;28;83066;-64
2021/04/25 00:57:28;;;;;;;21.70;10.65;;;23.00;34.50;;;;;;6209450;28;84350;-64
2021/04/25 01:00:29;;;;;;;21.77;11.00;;;23.00;34.40;;;;;;6225830;28;84163;-64
2021/04/25 01:03:29;;;;;;;21.65;10.95;;;23.00;34.50;;;;;;6211702;28;83109;-64
2021/04/25 01:06:31;;;;;;;19.08;10.60;;;23.00;34.50;;;;;;6228003;28;83747;-64
2021/04/25 01:09:31;;;;;;;20.08;11.63;;;23.00;34.30;;;;;;6218656;28;84180;-65
2021/04/25 01:12:32;;;;;;;18.55;10.45;;;23.00;34.60;;;;;;6216817;28;84272;-64
2021/04/25 01:15:32;;;;;;;20.52;10.88;;;23.00;34.70;;;;;;6223050;28;83035;-64
2021/04/25 01:18:33;;;;;;;18.88;11.02;;;23.00;34.70;;;;;;6226357;28;85882;-64
2021/04/25 01:21:33;;;;;;;21.08;10.80;;;23.00;34.30;;;;;;6228473;28;83306;-64
2021/04/25 01:24:34;;;;;;;22.02;11.23;;;23.00;34.30;;;;;;6217184;28;85736;-64
2021/04/25 01:27:34;;;;;;;21.10;11.23;;;23.00;34.50;;;;;;6227978;28;82918;-64
2021/04/25 01:30:35;;;;;;;19.42;10.70;;;23.00;34.90;;;;;;6216757;28;84507;-64
2021/04/25 01:33:36;;;;;;;19.98;11.13;;;23.00;34.50;;;;;;6221486;28;83421;-64
2021/04/25 01:36:36;;;;;;;19.63;10.02;;;23.00;34.50;;;;;;6221269;28;84283;-63
2021/04/25 01:39:37;;;;;;;18.23;10.32;;;23.00;34.50;;;;;;6225399;28;83397;-64
2021/04/25 01:42:37;;;;;;;17.65;10.27;;;23.00;34.70;;;;;;6226620;28;84195;-64
2021/04/25 01:45:38;;;;;;;19.77;10.23;;;23.00;34.40;;;;;;6226792;28;83269;-64
2021/04/25 01:48:38;;;;;;;20.90;10.55;;;23.00;34.50;;;;;;6228521;28;83170;-64
2021/04/25 01:51:39;;;;;;;18.35;10.65;;;23.00;34.80;;;;;;6217414;28;83630;-65
2021/04/25 01:54:39;;;;;;;22.40;11.32;;;23.00;34.60;;;;;;6226940;28;83501;-64
2021/04/25 01:57:40;;;;;;;19.33;10.65;;;23.00;34.40;;;;;;6224608;28;82999;-64
2021/04/25 02:00:41;;;;;;;22.48;11.15;;;23.00;34.50;;;;;;6225084;28;83058;-64
2021/04/25 02:03:41;;;;;;;19.20;10.32;;;23.00;34.70;;;;;;6225586;28;82861;-64
2021/04/25 02:06:42;;;;;;;18.08;10.55;;;23.00;34.50;;;;;;6226107;28;83237;-64
2021/04/25 02:09:43;;;;;;;17.48;9.73;;;23.00;34.50;;;;;;6227512;28;83202;-64
2021/04/25 02:12:43;;;;;;;21.73;10.60;;;22.90;34.70;;;;;;6230693;28;81837;-64
2021/04/25 02:15:44;;;;;;;18.33;9.80;;;23.00;34.60;;;;;;6226038;28;83022;-65
2021/04/25 02:18:44;;;;;;;19.58;11.45;;;23.00;34.80;;;;;;6229535;28;82838;-65
2021/04/25 02:21:45;;;;;;;20.73;11.20;;;23.00;34.90;;;;;;6220596;28;83081;-64
2021/04/25 02:24:45;;;;;;;22.27;10.55;;;22.90;35.00;;;;;;6211143;28;83314;-64
2021/04/25 02:27:46;;;;;;;19.88;10.23;;;22.90;34.70;;;;;;6197337;28;83591;-64
2021/04/25 02:30:46;;;;;;;21.45;11.07;;;22.90;34.70;;;;;;6198451;28;83085;-64
2021/04/25 02:33:47;;;;;;;21.67;11.45;;;22.90;34.90;;;;;;6208195;28;86639;-64
2021/04/25 02:36:48;;;;;;;21.63;11.05;;;22.90;34.50;;;;;;6225711;28;83216;-64
2021/04/25 02:39:48;;;;;;;17.30;10.00;;;22.90;35.60;;;;;;6217987;28;86401;-65
2021/04/25 02:42:49;;;;;;;21.15;11.25;;;22.90;34.40;;;;;;6225107;28;83164;-64
2021/04/25 02:45:49;;;;;;;19.88;10.90;;;23.00;34.80;;;;;;6225339;28;83245;-64
2021/04/25 02:48:50;;;;;;;21.65;11.73;;;22.90;34.50;;;;;;6208606;28;84683;-65
2021/04/25 02:51:50;;;;;;;21.58;11.70;;;22.90;34.50;;;;;;6222987;28;83236;-66
2021/04/25 02:54:51;;;;;;;20.55;12.05;;;22.90;34.60;;;;;;6227669;28;83266;-65
2021/04/25 02:57:51;;;;;;;20.80;11.93;;;22.90;34.40;;;;;;6203708;28;84280;-64
2021/04/25 03:00:52;;;;;;;19.98;11.27;;;22.90;34.30;;;;;;6223258;28;83360;-64
2021/04/25 03:03:53;;;;;;;22.50;12.23;;;22.90;34.30;;;;;;6224884;28;84300;-65
2021/04/25 03:06:53;;;;;;;21.05;11.93;;;22.90;34.50;;;;;;6215468;28;84340;-65
2021/04/25 03:09:54;;;;;;;25.45;12.85;;;22.90;34.40;;;;;;6224863;28;83327;-64
2021/04/25 03:12:54;;;;;;;22.30;12.15;;;22.90;34.30;;;;;;6202570;27;84765;-64
2021/04/25 03:15:55;;;;;;;20.20;11.68;;;22.90;34.20;;;;;;6219317;28;83007;-65
2021/04/25 03:18:55;;;;;;;19.13;11.70;;;22.90;33.80;;;;;;6224997;28;83509;-64
2021/04/25 03:21:56;;;;;;;22.90;12.43;;;22.90;34.20;;;;;;6218222;28;83672;-64
2021/04/25 03:24:56;;;;;;;24.67;13.48;;;22.90;34.10;;;;;;6222922;28;84031;-64
2021/04/25 03:27:57;;;;;;;24.65;12.85;;;22.90;34.10;;;;;;6221754;28;83215;-64
2021/04/25 03:30:57;;;;;;;22.70;12.70;;;22.90;34.30;;;;;;6224016;28;83672;-64
2021/04/25 03:33:58;;;;;;;27.15;12.88;;;22.90;34.40;;;;;;6215319;28;83944;-65
2021/04/25 03:36:58;;;;;;;20.52;12.13;;;22.90;34.20;;;;;;6225980;28;83816;-64
2021/04/25 03:39:59;;;;;;;24.48;13.15;;;22.90;34.60;;;;;;6223463;28;83152;-65
2021/04/25 03:42:59;;;;;;;21.98;11.65;;;22.90;33.80;;;;;;6224457;28;82985;-64
2021/04/25 03:46:00;;;;;;;26.45;13.48;;;22.90;34.30;;;;;;6224682;28;83407;-65
2021/04/25 03:49:01;;;;;;;25.70;13.20;;;22.90;34.20;;;;;;6224917;28;83209;-65
2021/04/25 03:52:01;;;;;;;25.50;13.85;;;22.90;33.80;;;;;;6222435;28;83249;-65
2021/04/25 03:55:02;;;;;;;26.73;14.45;;;22.90;33.30;;;;;;6216921;28;84097;-66
2021/04/25 03:58:03;;;;;;;23.38;13.55;;;22.90;33.70;;;;;;6226188;28;83229;-65
2021/04/25 04:01:04;;;;;;;28.52;13.93;;;22.90;33.00;;;;;;6223431;28;82994;-65
2021/04/25 04:04:04;;;;;;;25.77;14.13;;;22.90;32.70;;;;;;6221943;28;85579;-65
2021/04/25 04:07:05;;;;;;;28.65;14.77;;;22.90;32.50;;;;;;6215521;28;84132;-65
2021/04/25 04:10:05;;;;;;;32.72;15.60;;;22.80;32.20;;;;;;6223032;28;84611;-65
2021/04/25 04:13:06;;;;;;;29.23;14.45;;;22.80;32.10;;;;;;6224702;28;84027;-66
2021/04/25 04:16:06;;;;;;;29.02;15.80;;;22.80;32.00;;;;;;6223686;28;83062;-65
2021/04/25 04:19:07;;;;;;;25.73;15.13;;;22.90;32.10;;;;;;6207938;28;86273;-65
2021/04/25 04:22:07;;;;;;;29.63;15.45;;;22.90;31.90;;;;;;6224321;28;83686;-65
2021/04/25 04:25:08;;;;;;;30.52;15.95;;;22.90;32.70;;;;;;6224745;28;83543;-65
2021/04/25 04:28:08;;;;;;;28.13;14.93;;;22.90;32.00;;;;;;6209044;28;83370;-65
2021/04/25 04:31:09;;;;;;;27.17;15.52;;;22.90;32.00;;;;;;6223645;28;82952;-66
2021/04/25 04:34:09;;;;;;;31.85;17.10;;;22.90;32.20;;;;;;6225603;28;84413;-65
2021/04/25 04:37:10;;;;;;;29.75;15.48;;;22.90;31.90;;;;;;6231103;28;84561;-65
2021/04/25 04:40:10;;;;;;;32.00;16.00;;;23.00;32.00;;;;;;6230117;28;83208;-65
2021/04/25 04:43:11;;;;;;;32.08;15.63;;;23.00;32.00;;;;;;6230169;28;84169;-65
2021/04/25 04:46:11;;;;;;;27.77;15.73;;;22.90;31.90;;;;;;6233369;28;83452;-64
2021/04/25 04:49:12;;;;;;;29.73;16.38;;;23.00;31.90;;;;;;6231944;28;83091;-65
2021/04/25 04:52:12;;;;;;;34.22;16.02;;;23.00;32.00;;;;;;6220682;28;83276;-66
2021/04/25 04:55:13;;;;;;;35.42;15.95;;;23.00;31.90;;;;;;6207862;28;84312;-64
2021/04/25 04:58:13;;;;;;;31.52;16.38;;;23.00;32.00;;;;;;6228701;28;83529;-63
2021/04/25 05:01:14;;;;;;;27.90;15.77;;;23.00;32.00;;;;;;6224767;28;84328;-62
2021/04/25 05:04:15;;;;;;;28.60;16.55;;;23.00;32.10;;;;;;6220529;28;82861;-60
2021/04/25 05:07:15;;;;;;;27.23;14.65;;;23.00;33.00;;;;;;6230435;28;84446;-64
2021/04/25 05:10:16;;;;;;;28.45;15.77;;;23.00;33.30;;;;;;6196533;28;82692;-65
2021/04/25 05:13:16;;;;;;;30.65;16.10;;;23.00;33.30;;;;;;6203856;28;83436;-64
2021/04/25 05:16:17;;;;;;;32.38;16.08;;;23.00;33.70;;;;;;6226600;28;83020;-63
2021/04/25 05:19:17;;;;;;;32.72;16.73;;;23.10;33.60;;;;;;6226967;28;83234;-63
2021/04/25 05:22:18;;;;;;;39.17;18.95;;;23.10;34.70;;;;;;6223286;28;83157;-64
2021/04/25 05:25:19;;;;;;;34.30;17.25;;;23.10;35.70;;;;;;6193103;28;85987;-63
2021/04/25 05:28:19;;;;;;;37.78;16.90;;;23.10;33.70;;;;;;6226523;28;83626;-63
2021/04/25 05:31:20;;;;;;;34.95;17.45;;;23.10;35.40;;;;;;6216969;28;83815;-63
2021/04/25 05:34:20;;;;;;;36.63;18.63;;;23.10;34.00;;;;;;6229248;28;83192;-63
2021/04/25 05:37:21;;;;;;;33.55;16.77;;;23.10;34.50;;;;;;6227482;28;83695;-63
2021/04/25 05:40:21;;;;;;;35.83;17.73;;;23.20;35.40;;;;;;6219980;28;83549;-64
2021/04/25 05:43:22;;;;;;;37.42;18.50;;;23.20;35.80;;;;;;6227868;28;84128;-64
2021/04/25 05:46:22;;;;;;;43.90;18.95;;;23.20;36.20;;;;;;6233627;28;84599;-63
2021/04/25 05:49:23;;;;;;;36.92;18.75;;;23.20;36.30;;;;;;6223702;28;83062;-64
2021/04/25 05:52:23;;;;;;;36.83;17.90;;;23.30;36.70;;;;;;6231570;28;83184;-64
2021/04/25 05:55:24;;;;;;;38.60;19.42;;;23.30;36.90;;;;;;6229525;28;83655;-63
2021/04/25 05:58:24;;;;;;;37.83;19.75;;;23.30;36.90;;;;;;6226263;28;83229;-63
2021/04/25 06:01:25;;;;;;;32.15;18.20;;;23.30;37.00;;;;;;6232157;28;83444;-64
2021/04/25 06:04:25;;;;;;;38.47;18.95;;;23.30;37.10;;;;;;6229984;28;82995;-64
2021/04/25 06:07:26;;;;;;;38.38;18.83;;;23.40;37.30;;;;;;6227604;28;84230;-64
2021/04/25 06:10:27;;;;;;;35.78;17.95;;;23.40;37.20;;;;;;6227293;28;83413;-64
2021/04/25 06:13:27;;;;;;;38.70;19.08;;;23.40;37.40;;;;;;6218634;28;84668;-62
2021/04/25 06:16:28;;;;;;;37.63;18.70;;;23.40;37.40;;;;;;6228219;28;85894;-64
2021/04/25 06:19:28;;;;;;;38.08;17.33;;;23.40;37.30;;;;;;6228407;28;83198;-63
2021/04/25 06:22:29;;;;;;;31.90;17.25;;;23.40;37.80;;;;;;6223777;28;83668;-63
2021/04/25 06:25:29;;;;;;;33.13;16.13;;;23.40;37.30;;;;;;6225290;28;83410;-62
2021/04/25 06:28:30;;;;;;;33.45;16.55;;;23.40;37.00;;;;;;6209882;28;83422;-62
2021/04/25 06:31:31;;;;;;;32.22;17.20;;;23.40;36.70;;;;;;6226550;28;83118;-65
2021/04/25 06:34:31;;;;;;;33.42;16.20;;;23.40;36.60;;;;;;6227050;27;83019;-67
2021/04/25 06:37:32;;;;;;;30.80;15.57;;;23.40;36.70;;;;;;6223643;28;83438;-65
2021/04/25 06:40:35;;;;;;;30.98;16.15;;;23.40;36.70;;;;;;6226047;28;83847;-62
2021/04/25 06:43:36;;;;;;;30.90;15.50;;;23.50;36.60;;;;;;6228185;28;82986;-64
2021/04/25 06:46:36;;;;;;;31.95;16.17;;;23.40;36.10;;;;;;6203947;28;84549;-63
2021/04/25 06:49:38;;;;;;;31.83;15.05;;;23.50;36.30;;;;;;6224496;28;90510;-67
2021/04/25 06:52:38;;;;;;;30.65;15.18;;;23.50;36.40;;;;;;6221145;28;83692;-63
2021/04/25 06:55:39;;;;;;;29.58;14.10;;;23.50;36.10;;;;;;6208761;28;86458;-63
2021/04/25 06:58:39;;;;;;;30.83;13.55;;;23.50;35.90;;;;;;6216120;28;82901;-63
2021/04/25 07:01:40;;;;;;;25.40;13.60;;;23.50;35.70;;;;;;6224139;28;85783;-64
2021/04/25 07:04:40;;;;;;;29.42;13.70;;;23.50;35.60;;;;;;6223712;28;84147;-63
2021/04/25 07:07:41;;;;;;;25.35;13.70;;;23.60;35.50;;;;;;6229801;28;83878;-62
2021/04/25 07:10:42;;;;;;;28.60;13.57;;;23.60;35.40;;;;;;6225112;28;83166;-62
2021/04/25 07:13:42;;;;;;;24.65;13.05;;;23.60;35.30;;;;;;6224464;28;84621;-63
2021/04/25 07:16:43;;;;;;;31.15;13.98;;;23.60;35.20;;;;;;6223320;28;83003;-64
2021/04/25 07:19:43;;;;;;;24.45;11.90;;;23.60;35.50;;;;;;6230010;28;83276;-63
2021/04/25 07:22:44;;;;;;;22.98;12.90;;;23.60;35.90;;;;;;6208806;28;85771;-63
2021/04/25 07:25:44;;;;;;;24.33;12.40;;;23.60;37.60;;;;;;6221938;28;82755;-64
2021/04/25 07:28:45;;;;;;;25.85;12.95;;;23.60;36.80;;;;;;6224007;28;83127;-64
2021/04/25 07:31:45;;;;;;;24.10;11.63;;;23.60;37.50;;;;;;6227525;28;83820;-63
2021/04/25 07:34:46;;;;;;;21.95;11.05;;;23.60;37.90;;;;;;6228140;28;84424;-65
2021/04/25 07:37:48;;;;;;;20.67;10.05;;;23.60;38.10;;;;;;6225129;28;83672;-65
2021/04/25 07:40:48;;;;;;;22.23;11.55;;;23.60;38.00;;;;;;6181856;28;84195;-64
2021/04/25 07:43:49;;;;;;;20.45;10.40;;;23.60;39.00;;;;;;6190420;28;84659;-64
2021/04/25 07:46:49;;;;;;;19.08;10.32;;;23.60;38.90;;;;;;6229175;28;86433;-64
2021/04/25 07:49:50;;;;;;;21.48;9.75;;;23.50;38.10;;;;;;6223100;28;86073;-63
2021/04/25 07:52:51;;;;;;;20.70;9.57;;;23.60;39.00;;;;;;6228604;28;83003;-63
2021/04/25 07:55:51;;;;;;;15.20;8.60;;;23.60;39.00;;;;;;6231264;28;80707;-64
2021/04/25 07:58:52;;;;;;;18.73;9.77;;;23.60;39.10;;;;;;6229292;28;80483;-64
2021/04/25 08:01:52;;;;;;;18.15;9.05;;;23.60;38.90;;;;;;6232393;28;81214;-65
2021/04/25 08:04:53;;;;;;;23.08;9.25;;;23.60;39.00;;;;;;6225462;28;80232;-64
2021/04/25 08:07:53;;;;;;;16.90;8.73;;;23.60;39.60;;;;;;6222070;28;81038;-64
2021/04/25 08:10:54;;;;;;;17.67;8.55;;;23.60;39.30;;;;;;6210617;28;81592;-66
2021/04/25 08:13:54;;;;;;;14.40;8.73;;;23.60;39.50;;;;;;6233930;28;81365;-65
2021/04/25 08:16:55;;;;;;;19.65;9.75;;;23.60;39.80;;;;;;6229188;28;80580;-65
2021/04/25 08:19:55;;;;;;;16.23;8.27;;;23.70;39.80;;;;;;6231097;28;81066;-66
2021/04/25 08:22:56;;;;;;;15.88;9.52;;;23.70;40.00;;;;;;6228857;28;80162;-65
2021/04/25 08:25:56;;;;;;;18.77;9.95;;;23.70;39.80;;;;;;6206764;28;81111;-65
2021/04/25 08:28:57;;;;;;;28.30;11.05;;;23.70;39.70;;;;;;6231902;28;81009;-65
2021/04/25 08:31:57;;;;;;;19.58;10.98;;;23.70;39.80;;;;;;6224276;28;83205;-65
2021/04/25 08:34:58;;;;;;;23.33;11.13;;;23.60;40.10;;;;;;6237695;28;83194;-64
2021/04/25 08:37:58;;;;;;;18.80;10.70;;;23.70;39.80;;;;;;6227490;28;84095;-63
2021/04/25 08:40:59;;;;;;;22.13;9.82;;;23.70;39.70;;;;;;6232325;28;83453;-63
2021/04/25 08:43:59;;;;;;;28.08;11.57;;;23.70;40.20;;;;;;6232227;28;87561;-64
2021/04/25 08:47:00;;;;;;;23.95;9.70;;;23.70;41.10;;;;;;6223616;28;83521;-64
2021/04/25 08:50:01;;;;;;;24.92;10.55;;;23.70;43.20;;;;;;6231663;28;82925;-64
2021/04/25 08:53:02;;;;;;;26.73;12.30;;;23.70;45.40;;;;;;6230561;28;83188;-64
2021/04/25 08:56:02;;;;;;;30.35;10.70;;;23.70;47.10;;;;;;6228468;28;83045;-65
2021/04/25 08:59:03;;;;;;;22.00;10.35;;;23.70;46.20;;;;;;6233455;28;83164;-64
2021/04/25 09:02:03;;;;;;;23.02;10.65;;;23.70;45.80;;;;;;6208943;28;84267;-65
2021/04/25 09:05:04;;;;;;;21.63;9.93;;;23.70;44.70;;;;;;6237077;28;83662;-65
2021/04/25 09:08:04;;;;;;;22.40;9.18;;;23.70;44.20;;;;;;6238940;28;83365;-65
2021/04/25 09:11:05;;;;;;;18.20;8.52;;;23.80;44.10;;;;;;6237906;28;80304;-63
2021/04/25 09:14:06;;;;;;;17.65;8.23;;;23.70;44.20;;;;;;6235616;28;80529;-63
2021/04/25 09:17:06;;;;;;;18.67;8.98;;;23.80;44.10;;;;;;6233379;28;80391;-63
2021/04/25 09:20:07;;;;;;;17.73;8.25;;;23.80;43.10;;;;;;6232686;28;80257;-65
2021/04/25 09:23:07;;;;;;;14.57;7.53;;;23.80;41.60;;;;;;6240103;28;80654;-63
2021/04/25 09:26:09;;;;;;;14.10;6.68;;;23.80;40.80;;;;;;6232141;28;80526;-63
2021/04/25 09:29:10;;;;;;;14.52;6.43;;;23.80;39.40;;;;;;6233872;28;81362;-63
2021/04/25 09:32:10;;;;;;;14.02;5.50;;;23.80;38.60;;;;;;6235017;28;80460;-62
2021/04/25 09:35:11;;;;;;;13.60;5.85;;;23.80;37.40;;;;;;6227707;28;80369;-66
2021/04/25 09:38:11;;;;;;;11.85;6.00;;;23.80;36.80;;;;;;6236592;28;80520;-63
2021/04/25 09:41:12;;;;;;;9.40;4.80;;;23.70;35.90;;;;;;6229114;27;80433;-64
2021/04/25 09:44:12;;;;;;;8.82;4.95;;;23.60;33.20;;;;;;6230434;28;80507;-64
2021/04/25 09:47:13;;;;;;;8.60;4.57;;;23.60;32.00;;;;;;6233717;28;81913;-63
2021/04/25 09:50:13;;;;;;;9.00;4.07;;;23.50;31.00;;;;;;6233477;28;82526;-64
2021/04/25 09:53:14;;;;;;;6.10;4.05;;;23.50;32.00;;;;;;6232748;28;81471;-65
2021/04/25 09:56:14;;;;;;;9.52;5.07;;;23.50;30.70;;;;;;6217939;28;82542;-61
2021/04/25 09:59:15;;;;;;;7.45;4.05;;;23.50;29.80;;;;;;6230515;28;80737;-64
2021/04/25 10:02:15;;;;;;;10.27;4.10;;;23.40;28.70;;;;;;6230202;28;80547;-63
2021/04/25 10:05:16;;;;;;;7.22;4.53;;;23.40;30.60;;;;;;6230258;28;81756;-63
2021/04/25 10:08:16;;;;;;;12.00;4.85;;;23.40;31.10;;;;;;6234280;28;81636;-64
2021/04/25 10:11:17;;;;;;;10.95;4.68;;;23.40;31.60;;;;;;6213570;28;81000;-65
2021/04/25 10:14:18;;;;;;;12.35;4.68;;;23.40;32.20;;;;;;6231800;28;80656;-64
2021/04/25 10:17:18;;;;;;;9.57;3.80;;;23.40;32.60;;;;;;6217767;28;81982;-64
2021/04/25 10:20:19;;;;;;;6.95;3.78;;;23.50;32.90;;;;;;6229560;28;80525;-63
2021/04/25 10:23:19;;;;;;;8.98;3.75;;;23.50;33.10;;;;;;6231094;28;80830;-64
2021/04/25 10:26:20;;;;;;;8.25;4.28;;;23.60;33.00;;;;;;6230201;28;83872;-64
2021/04/25 10:29:20;;;;;;;11.32;4.63;;;23.60;33.30;;;;;;6223985;28;80480;-64
2021/04/25 10:32:21;;;;;;;8.40;4.00;;;23.60;33.60;;;;;;6233107;28;81597;-64
2021/04/25 10:35:21;;;;;;;11.43;4.30;;;23.60;33.30;;;;;;6217229;28;81560;-62
2021/04/25 10:38:22;;;;;;;6.07;3.95;;;23.60;33.20;;;;;;6218276;28;81678;-64
2021/04/25 10:41:23;;;;;;;8.25;3.70;;;23.60;33.40;;;;;;6229291;28;81268;-63
2021/04/25 10:44:23;;;;;;;7.45;4.10;;;23.60;33.10;;;;;;6231687;28;80410;-63
2021/04/25 10:47:24;;;;;;;8.20;4.38;;;23.60;32.90;;;;;;6227154;28;80910;-65
2021/04/25 10:50:24;;;;;;;6.72;3.85;;;23.60;32.80;;;;;;6231139;28;80447;-64
2021/04/25 10:53:25;;;;;;;8.27;3.78;;;23.60;34.00;;;;;;6230945;28;81014;-64
2021/04/25 10:56:26;;;;;;;5.75;3.72;;;23.60;33.20;;;;;;6229813;28;80489;-63
2021/04/25 10:59:27;;;;;;;5.70;3.78;;;23.60;33.20;;;;;;6231892;28;80432;-62
2021/04/25 11:02:27;;;;;;;7.93;4.47;;;23.60;33.40;;;;;;6228388;28;81496;-64
2021/04/25 11:05:28;;;;;;;6.57;3.90;;;23.60;33.30;;;;;;6232358;28;80624;-64
2021/04/25 11:08:28;;;;;;;7.60;4.00;;;23.60;33.20;;;;;;6232304;28;81146;-65
2021/04/25 11:11:29;;;;;;;7.03;4.20;;;23.60;33.20;;;;;;6229498;28;81440;-64
2021/04/25 11:14:29;;;;;;;8.85;3.90;;;23.60;34.10;;;;;;6230007;28;80624;-65
2021/04/25 11:17:30;;;;;;;6.18;3.50;;;23.60;33.00;;;;;;6227975;28;80804;-64
2021/04/25 11:20:31;;;;;;;9.48;3.83;;;23.60;32.60;;;;;;6228065;28;80361;-65
2021/04/25 11:23:31;;;;;;;5.85;3.67;;;23.60;32.30;;;;;;6231951;28;81131;-65
2021/04/25 11:26:32;;;;;;;8.30;3.15;;;23.60;32.40;;;;;;6219209;28;80873;-65
2021/04/25 11:29:32;;;;;;;5.22;3.58;;;23.60;32.20;;;;;;6211789;28;80448;-64
2021/04/25 11:32:33;;;;;;;7.72;4.00;;;23.60;31.80;;;;;;6214424;28;82642;-64
2021/04/25 11:35:34;;;;;;;7.03;4.13;;;23.60;31.80;;;;;;6224659;28;80257;-64
2021/04/25 11:38:34;;;;;;;8.30;3.40;;;23.60;31.70;;;;;;6230244;28;80493;-64
2021/04/25 11:41:35;;;;;;;5.70;3.38;;;23.60;31.60;;;;;;6227191;28;81643;-64
2021/04/25 11:44:35;;;;;;;7.88;3.00;;;23.60;31.60;;;;;;6198934;27;82160;-66
2021/04/25 11:47:36;;;;;;;4.05;2.95;;;23.70;31.70;;;;;;6230905;28;81799;-67
2021/04/25 11:50:37;;;;;;;5.10;2.95;;;23.70;31.50;;;;;;6180437;28;80487;-66
2021/04/25 11:53:37;;;;;;;7.35;3.08;;;23.70;31.40;;;;;;6232819;28;81317;-67
2021/04/25 11:56:38;;;;;;;5.75;3.35;;;23.70;31.20;;;;;;6213073;28;82563;-66
2021/04/25 11:59:38;;;;;;;5.00;2.88;;;23.70;31.00;;;;;;6189609;28;83187;-65
2021/04/25 12:02:39;;;;;;;7.75;3.03;;;23.70;31.20;;;;;;6216735;28;82240;-66
2021/04/25 12:05:40;;;;;;;8.07;3.58;;;23.70;31.30;;;;;;6233139;28;84543;-66
2021/04/25 12:08:40;;;;;;;3.85;2.78;;;23.70;31.20;;;;;;6222741;28;83125;-67
2021/04/25 12:11:41;;;;;;;5.25;3.22;;;23.70;31.50;;;;;;6234805;28;81263;-67
2021/04/25 12:14:41;;;;;;;4.68;3.20;;;23.70;31.40;;;;;;6224941;28;80603;-65
2021/04/25 12:17:42;;;;;;;5.57;3.33;;;23.70;31.60;;;;;;6227948;28;84991;-66
2021/04/25 12:20:42;;;;;;;5.95;3.35;;;23.70;31.80;;;;;;6217358;28;81530;-66
2021/04/25 12:23:43;;;;;;;5.07;3.33;;;23.70;31.80;;;;;;6234913;28;81151;-64
2021/04/25 12:26:44;;;;;;;4.18;2.83;;;23.70;32.10;;;;;;6211027;28;82074;-66
2021/04/25 12:29:48;;;;;;;5.88;3.08;;;23.70;32.10;;;;;;6235988;28;80371;-65
2021/04/25 12:32:49;;;;;;;8.90;3.20;;;23.70;32.10;;;;;;6214601;28;83882;-66
2021/04/25 12:35:49;;;;;;;3.65;2.75;;;23.70;32.10;;;;;;6232063;28;80670;-66
2021/04/25 12:38:50;;;;;;;4.68;2.75;;;23.70;32.00;;;;;;6231972;28;80458;-65
2021/04/25 12:41:51;;;;;;;4.47;2.70;;;23.70;32.40;;;;;;6233870;28;81005;-66
2021/04/25 12:44:51;;;;;;;6.32;3.28;;;23.70;32.90;;;;;;6231582;28;80778;-66
2021/04/25 12:47:52;;;;;;;6.47;3.33;;;23.70;32.10;;;;;;6207653;28;81413;-65
2021/04/25 12:50:52;;;;;;;5.80;3.30;;;23.70;31.90;;;;;;6234824;28;81931;-65
2021/04/25 12:53:53;;;;;;;5.55;3.38;;;23.70;32.00;;;;;;6233291;28;80931;-64
2021/04/25 12:56:53;;;;;;;5.20;3.20;;;23.70;32.10;;;;;;6231886;28;80388;-64
2021/04/25 12:59:54;;;;;;;6.75;3.38;;;23.70;32.30;;;;;;6235792;28;80971;-66
2021/04/25 13:02:54;;;;;;;5.85;3.00;;;23.70;32.20;;;;;;6210635;28;83358;-66
2021/04/25 13:05:55;;;;;;;4.15;3.03;;;23.70;32.60;;;;;;6232965;28;81283;-67
2021/04/25 13:08:56;;;;;;;4.63;2.90;;;23.70;32.80;;;;;;6232298;28;80643;-64
2021/04/25 13:11:56;;;;;;;5.40;3.17;;;23.70;33.10;;;;;;6228508;28;80529;-64
2021/04/25 13:15:03;;;;;;;9.20;4.43;;;23.60;32.50;;;;;;6193319;28;80768;-66
2021/04/25 13:18:04;;;;;;;7.18;3.17;;;23.70;32.80;;;;;;6210237;28;80804;-65
2021/04/25 13:21:08;;;;;;;8.63;3.28;;;23.70;32.90;;;;;;6220698;28;80251;-65
2021/04/25 13:24:09;;;;;;;5.22;2.78;;;23.70;32.50;;;;;;6230551;28;81579;-66
2021/04/25 13:27:12;;;;;;;8.75;3.75;;;23.70;32.70;;;;;;6229290;28;80763;-64
2021/04/25 13:30:13;;;;;;;6.50;3.40;;;23.70;33.00;;;;;;6227048;28;81688;-67
2021/04/25 13:33:14;;;;;;;8.10;3.70;;;23.70;32.90;;;;;;6228337;28;80479;-65
2021/04/25 13:36:14;;;;;;;7.35;3.28;;;23.70;32.90;;;;;;6225551;28;80888;-65
2021/04/25 13:39:15;;;;;;;7.60;3.90;;;23.70;33.30;;;;;;6232514;28;81590;-66
2021/04/25 13:42:15;;;;;;;6.30;2.95;;;23.70;32.90;;;;;;6230521;28;81297;-65
2021/04/25 13:45:16;;;;;;;6.10;3.55;;;23.70;33.20;;;;;;6230307;28;80514;-65
2021/04/25 13:48:16;;;;;;;6.78;3.85;;;23.70;33.10;;;;;;6209366;28;80885;-67
2021/04/25 13:51:17;;;;;;;5.82;3.65;;;23.70;33.40;;;;;;6231728;28;84531;-66
2021/04/25 13:54:17;;;;;;;6.00;3.20;;;23.70;33.20;;;;;;6213632;28;81549;-66
2021/04/25 13:57:20;;;;;;;7.68;3.92;;;23.70;33.00;;;;;;6232344;28;80454;-66
2021/04/25 14:00:21;;;;;;;4.50;2.88;;;23.70;32.80;;;;;;6231574;28;80883;-65
2021/04/25 14:03:21;;;;;;;6.97;3.53;;;23.70;32.90;;;;;;6229732;28;80667;-65
2021/04/25 14:06:22;;;;;;;6.60;3.70;;;23.70;32.70;;;;;;6208688;28;83378;-67
2021/04/25 14:09:22;;;;;;;5.78;3.72;;;23.70;32.90;;;;;;6230323;28;81724;-64
2021/04/25 14:12:23;;;;;;;7.00;3.65;;;23.60;32.80;;;;;;6232481;28;80578;-67
2021/04/25 14:15:23;;;;;;;5.32;3.53;;;23.60;32.90;;;;;;6227979;28;81480;-66
2021/04/25 14:18:24;;;;;;;6.03;3.60;;;23.60;33.00;;;;;;6215815;28;80679;-67
2021/04/25 14:21:24;;;;;;;5.20;3.22;;;23.60;32.70;;;;;;6227912;28;83265;-66
2021/04/25 14:24:25;;;;;;;5.53;3.40;;;23.60;33.10;;;;;;6228824;28;80553;-67
2021/04/25 14:27:25;;;;;;;6.00;3.22;;;23.60;33.10;;;;;;6217260;28;81777;-66
2021/04/25 14:30:26;;;;;;;6.40;3.55;;;23.60;32.80;;;;;;6225954;28;80359;-69
2021/04/25 14:33:27;;;;;;;4.97;3.35;;;23.60;33.00;;;;;;6228220;28;80219;-67
2021/04/25 14:36:28;;;;;;;6.70;3.47;;;23.70;32.70;;;;;;6227376;28;80339;-69
2021/04/25 14:39:28;;;;;;;8.00;3.38;;;23.70;32.60;;;;;;6217289;28;81521;-67
2021/04/25 14:42:29;;;;;;;4.82;3.28;;;23.60;32.90;;;;;;6230611;28;81521;-66
2021/04/25 14:45:29;;;;;;;4.93;2.90;;;23.60;32.70;;;;;;6242339;28;80195;-68
2021/04/25 14:48:30;;;;;;;6.68;3.55;;;23.60;32.80;;;;;;6218067;28;80855;-68
2021/04/25 14:51:33;;;;;;;6.93;3.38;;;23.60;32.50;;;;;;6235142;28;81471;-69
2021/04/25 14:54:33;;;;;;;5.90;2.92;;;23.60;33.00;;;;;;6240933;28;80576;-71
2021/04/25 14:57:34;;;;;;;3.22;2.47;;;23.60;32.60;;;;;;6233278;28;80556;-64
2021/04/25 15:00:34;;;;;;;6.68;2.88;;;23.60;32.60;;;;;;6234283;28;81766;-65
2021/04/25 15:03:35;;;;;;;5.25;2.97;;;23.60;33.10;;;;;;6235036;28;80383;-65
2021/04/25 15:06:35;;;;;;;4.55;2.55;;;23.60;33.40;;;;;;6235655;28;80545;-65
2021/04/25 15:09:36;;;;;;;4.60;2.63;;;23.60;33.30;;;;;;6232817;28;80800;-64
2021/04/25 15:12:37;;;;;;;6.05;2.70;;;23.50;33.20;;;;;;6228825;28;83103;-65
2021/04/25 15:15:37;;;;;;;5.68;3.38;;;23.60;33.60;;;;;;6230325;28;84465;-66
2021/04/25 15:18:38;;;;;;;5.35;3.05;;;23.60;33.50;;;;;;6228225;28;80313;-65
2021/04/25 15:21:38;;;;;;;12.70;2.70;;;23.60;32.90;;;;;;6203239;28;80909;-65
2021/04/25 15:24:39;;;;;;;2.53;2.00;;;23.60;33.00;;;;;;6224821;28;80540;-66